Terminal Aerodrome Forecast
Issued by NWS

Home | Current Version | Previous Version | Text Only | Print | Product List | Glossary On
Versions: 1 2 3 4 5 6 7 8 9 10 11 12 13 14
850
FTUS42 KMHX 291139
TAFPGV
TAF
KPGV 291139Z 2912/3012 22010KT P6SM SCT015
      TEMPO 2912/2913 BKN015
     FM291400 22010G18KT P6SM FEW250
     FM300000 20008KT P6SM FEW250
     FM301000 21004KT P6SM BKN015
      AMD LTD TO CLD VIS AND WIND=

USA.gov is the U.S. government's official web portal to all federal, state and local government web resources and services.